Ootaki — JG5445 — position and weather

sailwx.info

Track history (hours):
 
Tides and Currents Weather Stations Pressure Air Temp Water Temp Dewpoint Dewpoint Depression Visibility Wind Speed Wind Dir Waves Ship Positions

Ootaki

Last reported at 2017-Oct-20 10:27 UTC. Time now 2017-Oct-20 17:41 UTC.
Position N 35°31' E 139°44'.

Length 37 m; draft 4.5 m.

Type: Tug. MMSI: 431100219.

Date/timePositionNaut miles runAvg speedWind from/ knotsBaromVisibWave heightAir tempDewpointWater temp
2017-Oct-20 10:27N 35°31' E 139°44'0 0.0
2017-Oct-20 10:00N 35°31' E 139°44'0 0.0
2017-Oct-20 08:18N 35°31' E 139°44'0 0.0
2017-Oct-20 07:54N 35°31' E 139°44'0 0.0
2017-Oct-20 07:24N 35°31' E 139°44'0 0.0
2017-Oct-20 06:57N 35°31' E 139°44'0 0.0
2017-Oct-20 06:27N 35°31' E 139°44'0 0.0
2017-Oct-20 03:14N 35°31' E 139°44'6 8.7
2017-Oct-20 02:31N 35°25' E 139°46'1 7.3
2017-Oct-20 02:20N 35°24' E 139°46'710.4
2017-Oct-20 01:41N 35°17' E 139°46'210.7
2017-Oct-20 01:27N 35°15' E 139°47'4 8.4
2017-Oct-20 00:59N 35°11' E 139°47'0 0.8
2017-Oct-20 00:30N 35°11' E 139°47'0 0.4
2017-Oct-19 23:59N 35°11' E 139°47'2 3.5
2017-Oct-19 23:19N 35°13' E 139°46'413.0
2017-Oct-19 22:59N 35°17' E 139°44'2 0.1
2017-Oct-19 04:37N 35°17' E 139°41'111.2
2017-Oct-19 04:30N 35°18' E 139°42'2 3.1
2017-Oct-19 03:58N 35°19' E 139°40'0 0.0
2017-Oct-19 03:29N 35°19' E 139°40'0 0.1
2017-Oct-19 02:59N 35°19' E 139°40'0 0.1
2017-Oct-19 02:18N 35°19' E 139°40'0 0.1
2017-Oct-19 01:52N 35°19' E 139°40'1 1.6
2017-Oct-19 01:27N 35°19' E 139°41'2 4.3
2017-Oct-19 00:59N 35°17' E 139°41'0 0.8
2017-Oct-19 00:24N 35°17' E 139°41'2 4.1
2017-Oct-18 23:53N 35°19' E 139°40'0 0.0
2017-Oct-18 23:02N 35°19' E 139°40'0 0.5
2017-Oct-18 22:47N 35°19' E 139°40'1 2.8
2017-Oct-18 22:30N 35°19' E 139°41'2 4.7
2017-Oct-18 21:59N 35°17' E 139°43'2 2.0
2017-Oct-18 21:13N 35°17' E 139°41'0 0.0
2017-Oct-18 12:46N 35°17' E 139°41'1 3.3
2017-Oct-18 12:20N 35°18' E 139°43'1 1.5
2017-Oct-18 11:48N 35°18' E 139°42'1 0.3
2017-Oct-18 08:09N 35°17' E 139°41'410.9
2017-Oct-18 07:47N 35°15' E 139°45'310.0
2017-Oct-18 07:30N 35°13' E 139°46'812.0
2017-Oct-18 06:51N 35°20' E 139°43'410.9
2017-Oct-18 06:30N 35°23' E 139°41'2 2.4
2017-Oct-18 05:38N 35°21' E 139°41'0 0.2
2017-Oct-18 05:23N 35°21' E 139°41'0 0.1
2017-Oct-18 04:54N 35°21' E 139°41'0 0.0
2017-Oct-18 03:34N 35°21' E 139°41'0 0.0
2017-Oct-18 02:44N 35°21' E 139°41'410.7
2017-Oct-18 02:23N 35°18' E 139°42'0 0.7
2017-Oct-18 01:47N 35°18' E 139°43'0 0.6
2017-Oct-18 01:05N 35°18' E 139°43'0 0.6
2017-Oct-18 00:58N 35°18' E 139°43'0 1.0
2017-Oct-18 00:30N 35°18' E 139°42'0 0.9
2017-Oct-18 00:00N 35°18' E 139°43'2 0.2
2017-Oct-17 12:21N 35°17' E 139°41'2 2.6
2017-Oct-17 11:44N 35°18' E 139°43'0 1.2
2017-Oct-17 11:31N 35°18' E 139°42'1 0.3
2017-Oct-17 06:32N 35°17' E 139°41'1 3.3
2017-Oct-17 06:10N 35°18' E 139°42'1 1.4
2017-Oct-17 05:43N 35°18' E 139°42'2 0.8
2017-Oct-17 03:15N 35°19' E 139°40'0 0.2
2017-Oct-17 02:41N 35°19' E 139°40'0 0.1
2017-Oct-17 00:29N 35°19' E 139°40'0 0.0
2017-Oct-16 23:16N 35°19' E 139°40'0 0.0
2017-Oct-16 21:12N 35°19' E 139°40'0 0.6
2017-Oct-16 21:00N 35°19' E 139°40'2 0.1
2017-Oct-16 05:27N 35°17' E 139°41'0 0.3
2017-Oct-16 04:52N 35°17' E 139°41'0 0.0
2017-Oct-16 01:08N 35°17' E 139°41'0 0.9
2017-Oct-16 01:00N 35°17' E 139°41'0 0.0
2017-Oct-16 00:24N 35°17' E 139°41'0 0.1
2017-Oct-15 23:58N 35°17' E 139°41'1 1.7
2017-Oct-15 23:30N 35°18' E 139°42'2 2.5
2017-Oct-15 22:42N 35°19' E 139°40'0 0.6
2017-Oct-15 22:29N 35°19' E 139°40'0 0.1
2017-Oct-15 21:51N 35°19' E 139°40'2 3.5
2017-Oct-15 21:20N 35°18' E 139°42'1 0.1
2017-Oct-15 02:42N 35°17' E 139°41'2 7.3
2017-Oct-15 02:29N 35°18' E 139°42'2 0.8
2017-Oct-15 00:12N 35°17' E 139°41'2 5.3
2017-Oct-14 23:54N 35°18' E 139°42'1 0.5
2017-Oct-14 22:48N 35°18' E 139°43'0 0.7
2017-Oct-14 22:24N 35°18' E 139°43'0 0.4
2017-Oct-14 21:59N 35°18' E 139°43'2 0.1
2017-Oct-14 04:32N 35°17' E 139°41'010.4
2017-Oct-14 04:30N 35°17' E 139°41'1 2.1
2017-Oct-14 03:58N 35°18' E 139°42'1 0.7
2017-Oct-14 01:57N 35°17' E 139°41'0 0.3
2017-Oct-14 01:24N 35°17' E 139°41'2 1.4
2017-Oct-14 00:11N 35°18' E 139°43'0 0.5
2017-Oct-13 23:58N 35°18' E 139°43'0 0.4
2017-Oct-13 23:25N 35°18' E 139°42'0 0.7
2017-Oct-13 23:00N 35°18' E 139°42'1 2.2
2017-Oct-13 22:28N 35°17' E 139°41'0 0.0
2017-Oct-13 03:21N 35°17' E 139°41'0 0.8
2017-Oct-13 02:58N 35°17' E 139°41'0 0.1
2017-Oct-13 02:29N 35°17' E 139°41'0 0.1
2017-Oct-13 02:00N 35°17' E 139°41'0 0.0
2017-Oct-13 01:30N 35°17' E 139°41'0 0.3
2017-Oct-13 00:59N 35°17' E 139°41'1 2.7
2017-Oct-13 00:29N 35°18' E 139°42'7 9.8
2017-Oct-12 23:45N 35°25' E 139°47'2 9.8
2017-Oct-12 23:30N 35°22' E 139°45'810.8
2017-Oct-12 22:46N 35°14' E 139°47'310.3
2017-Oct-12 22:30N 35°12' E 139°47'1 2.3
2017-Oct-12 22:00N 35°11' E 139°47'0 0.6
2017-Oct-12 21:30N 35°11' E 139°47'3 5.3
2017-Oct-12 21:00N 35°13' E 139°46'5 0.7
2017-Oct-12 12:41N 35°17' E 139°41'2 8.7
2017-Oct-12 12:30N 35°18' E 139°42'0 0.1
2017-Oct-12 09:23N 35°18' E 139°42'611.2
2017-Oct-12 08:51N 35°13' E 139°46'5 6.4
2017-Oct-12 08:08N 35°18' E 139°44'3 9.4
2017-Oct-12 07:51N 35°20' E 139°42'3 9.3
2017-Oct-12 07:30N 35°23' E 139°42'1 1.3
2017-Oct-12 06:54N 35°24' E 139°41'2 1.5
2017-Oct-12 05:18N 35°21' E 139°41'0 0.0
2017-Oct-12 03:45N 35°21' E 139°41'2 6.8
2017-Oct-12 03:25N 35°19' E 139°42'1 1.7
2017-Oct-12 02:36N 35°18' E 139°42'1 6.0
2017-Oct-12 02:30N 35°18' E 139°43'0 0.2
2017-Oct-12 00:42N 35°18' E 139°42'1 4.6
2017-Oct-12 00:23N 35°17' E 139°41'0 0.0
2017-Oct-10 22:21N 35°17' E 139°41'512.0
2017-Oct-10 21:57N 35°22' E 139°41'  
Track history (hours):
 
Tides and Currents Weather Stations Pressure Air Temp Water Temp Dewpoint Dewpoint Depression Visibility Wind Speed Wind Dir Waves Ship Positions

Ootaki

Last reported at 2017-Oct-20 10:27 UTC. Time now 2017-Oct-20 17:41 UTC.
Position N 35°31' E 139°44'.

Length 37 m; draft 4.5 m.

Type: Tug. MMSI: 431100219.

Date/timePositionNaut miles runAvg speedWind from/ knotsBaromVisibWave heightAir tempDewpointWater temp
2017-Oct-20 10:27N 35°31' E 139°44'0 0.0
2017-Oct-20 10:00N 35°31' E 139°44'0 0.0
2017-Oct-20 08:18N 35°31' E 139°44'0 0.0
2017-Oct-20 07:54N 35°31' E 139°44'0 0.0
2017-Oct-20 07:24N 35°31' E 139°44'0 0.0
2017-Oct-20 06:57N 35°31' E 139°44'0 0.0
2017-Oct-20 06:27N 35°31' E 139°44'0 0.0
2017-Oct-20 03:14N 35°31' E 139°44'6 8.7
2017-Oct-20 02:31N 35°25' E 139°46'1 7.3
2017-Oct-20 02:20N 35°24' E 139°46'710.4
2017-Oct-20 01:41N 35°17' E 139°46'210.7
2017-Oct-20 01:27N 35°15' E 139°47'4 8.4
2017-Oct-20 00:59N 35°11' E 139°47'0 0.8
2017-Oct-20 00:30N 35°11' E 139°47'0 0.4
2017-Oct-19 23:59N 35°11' E 139°47'2 3.5
2017-Oct-19 23:19N 35°13' E 139°46'413.0
2017-Oct-19 22:59N 35°17' E 139°44'2 0.1
2017-Oct-19 04:37N 35°17' E 139°41'111.2
2017-Oct-19 04:30N 35°18' E 139°42'2 3.1
2017-Oct-19 03:58N 35°19' E 139°40'0 0.0
2017-Oct-19 03:29N 35°19' E 139°40'0 0.1
2017-Oct-19 02:59N 35°19' E 139°40'0 0.1
2017-Oct-19 02:18N 35°19' E 139°40'0 0.1
2017-Oct-19 01:52N 35°19' E 139°40'1 1.6
2017-Oct-19 01:27N 35°19' E 139°41'2 4.3
2017-Oct-19 00:59N 35°17' E 139°41'0 0.8
2017-Oct-19 00:24N 35°17' E 139°41'2 4.1
2017-Oct-18 23:53N 35°19' E 139°40'0 0.0
2017-Oct-18 23:02N 35°19' E 139°40'0 0.5
2017-Oct-18 22:47N 35°19' E 139°40'1 2.8
2017-Oct-18 22:30N 35°19' E 139°41'2 4.7
2017-Oct-18 21:59N 35°17' E 139°43'2 2.0
2017-Oct-18 21:13N 35°17' E 139°41'0 0.0
2017-Oct-18 12:46N 35°17' E 139°41'1 3.3
2017-Oct-18 12:20N 35°18' E 139°43'1 1.5
2017-Oct-18 11:48N 35°18' E 139°42'1 0.3
2017-Oct-18 08:09N 35°17' E 139°41'410.9
2017-Oct-18 07:47N 35°15' E 139°45'310.0
2017-Oct-18 07:30N 35°13' E 139°46'812.0
2017-Oct-18 06:51N 35°20' E 139°43'410.9
2017-Oct-18 06:30N 35°23' E 139°41'2 2.4
2017-Oct-18 05:38N 35°21' E 139°41'0 0.2
2017-Oct-18 05:23N 35°21' E 139°41'0 0.1
2017-Oct-18 04:54N 35°21' E 139°41'0 0.0
2017-Oct-18 03:34N 35°21' E 139°41'0 0.0
2017-Oct-18 02:44N 35°21' E 139°41'410.7
2017-Oct-18 02:23N 35°18' E 139°42'0 0.7
2017-Oct-18 01:47N 35°18' E 139°43'0 0.6
2017-Oct-18 01:05N 35°18' E 139°43'0 0.6
2017-Oct-18 00:58N 35°18' E 139°43'0 1.0
2017-Oct-18 00:30N 35°18' E 139°42'0 0.9
2017-Oct-18 00:00N 35°18' E 139°43'2 0.2
2017-Oct-17 12:21N 35°17' E 139°41'2 2.6
2017-Oct-17 11:44N 35°18' E 139°43'0 1.2
2017-Oct-17 11:31N 35°18' E 139°42'1 0.3
2017-Oct-17 06:32N 35°17' E 139°41'1 3.3
2017-Oct-17 06:10N 35°18' E 139°42'1 1.4
2017-Oct-17 05:43N 35°18' E 139°42'2 0.8
2017-Oct-17 03:15N 35°19' E 139°40'0 0.2
2017-Oct-17 02:41N 35°19' E 139°40'0 0.1
2017-Oct-17 00:29N 35°19' E 139°40'0 0.0
2017-Oct-16 23:16N 35°19' E 139°40'0 0.0
2017-Oct-16 21:12N 35°19' E 139°40'0 0.6
2017-Oct-16 21:00N 35°19' E 139°40'2 0.1
2017-Oct-16 05:27N 35°17' E 139°41'0 0.3
2017-Oct-16 04:52N 35°17' E 139°41'0 0.0
2017-Oct-16 01:08N 35°17' E 139°41'0 0.9
2017-Oct-16 01:00N 35°17' E 139°41'0 0.0
2017-Oct-16 00:24N 35°17' E 139°41'0 0.1
2017-Oct-15 23:58N 35°17' E 139°41'1 1.7
2017-Oct-15 23:30N 35°18' E 139°42'2 2.5
2017-Oct-15 22:42N 35°19' E 139°40'0 0.6
2017-Oct-15 22:29N 35°19' E 139°40'0 0.1
2017-Oct-15 21:51N 35°19' E 139°40'2 3.5
2017-Oct-15 21:20N 35°18' E 139°42'1 0.1
2017-Oct-15 02:42N 35°17' E 139°41'2 7.3
2017-Oct-15 02:29N 35°18' E 139°42'2 0.8
2017-Oct-15 00:12N 35°17' E 139°41'2 5.3
2017-Oct-14 23:54N 35°18' E 139°42'1 0.5
2017-Oct-14 22:48N 35°18' E 139°43'0 0.7
2017-Oct-14 22:24N 35°18' E 139°43'0 0.4
2017-Oct-14 21:59N 35°18' E 139°43'2 0.1
2017-Oct-14 04:32N 35°17' E 139°41'010.4
2017-Oct-14 04:30N 35°17' E 139°41'1 2.1
2017-Oct-14 03:58N 35°18' E 139°42'1 0.7
2017-Oct-14 01:57N 35°17' E 139°41'0 0.3
2017-Oct-14 01:24N 35°17' E 139°41'2 1.4
2017-Oct-14 00:11N 35°18' E 139°43'0 0.5
2017-Oct-13 23:58N 35°18' E 139°43'0 0.4
2017-Oct-13 23:25N 35°18' E 139°42'0 0.7
2017-Oct-13 23:00N 35°18' E 139°42'1 2.2
2017-Oct-13 22:28N 35°17' E 139°41'0 0.0
2017-Oct-13 03:21N 35°17' E 139°41'0 0.8
2017-Oct-13 02:58N 35°17' E 139°41'0 0.1
2017-Oct-13 02:29N 35°17' E 139°41'0 0.1
2017-Oct-13 02:00N 35°17' E 139°41'0 0.0
2017-Oct-13 01:30N 35°17' E 139°41'0 0.3
2017-Oct-13 00:59N 35°17' E 139°41'1 2.7
2017-Oct-13 00:29N 35°18' E 139°42'7 9.8
2017-Oct-12 23:45N 35°25' E 139°47'2 9.8
2017-Oct-12 23:30N 35°22' E 139°45'810.8
2017-Oct-12 22:46N 35°14' E 139°47'310.3
2017-Oct-12 22:30N 35°12' E 139°47'1 2.3
2017-Oct-12 22:00N 35°11' E 139°47'0 0.6
2017-Oct-12 21:30N 35°11' E 139°47'3 5.3
2017-Oct-12 21:00N 35°13' E 139°46'5 0.7
2017-Oct-12 12:41N 35°17' E 139°41'2 8.7
2017-Oct-12 12:30N 35°18' E 139°42'0 0.1
2017-Oct-12 09:23N 35°18' E 139°42'611.2
2017-Oct-12 08:51N 35°13' E 139°46'5 6.4
2017-Oct-12 08:08N 35°18' E 139°44'3 9.4
2017-Oct-12 07:51N 35°20' E 139°42'3 9.3
2017-Oct-12 07:30N 35°23' E 139°42'1 1.3
2017-Oct-12 06:54N 35°24' E 139°41'2 1.5
2017-Oct-12 05:18N 35°21' E 139°41'0 0.0
2017-Oct-12 03:45N 35°21' E 139°41'2 6.8
2017-Oct-12 03:25N 35°19' E 139°42'1 1.7
2017-Oct-12 02:36N 35°18' E 139°42'1 6.0
2017-Oct-12 02:30N 35°18' E 139°43'0 0.2
2017-Oct-12 00:42N 35°18' E 139°42'1 4.6
2017-Oct-12 00:23N 35°17' E 139°41'0 0.0
2017-Oct-10 22:21N 35°17' E 139°41'512.0
2017-Oct-10 21:57N 35°22' E 139°41'  

Dump ship's entire track history